createdAt,value
2019-02-07T00:00:30.007Z,99139.50
2019-02-07T00:03:04.228Z,99137.82
2019-02-07T00:05:36.429Z,99141.88
2019-02-07T00:08:08.676Z,99142.21
2019-02-07T00:10:41.189Z,99153.75
2019-02-07T00:13:13.337Z,99152.39
2019-02-07T00:15:45.384Z,99153.25
2019-02-07T00:18:17.582Z,99162.37
2019-02-07T00:20:49.722Z,99170.00
2019-02-07T00:23:22.306Z,99175.92
2019-02-07T00:25:54.672Z,99176.45
2019-02-07T00:28:26.939Z,99176.34
2019-02-07T00:30:59.289Z,99165.83
2019-02-07T00:33:31.491Z,99159.05
2019-02-07T00:36:03.686Z,99164.27
2019-02-07T00:38:35.916Z,99169.68
2019-02-07T00:41:08.071Z,99175.63
2019-02-07T00:43:40.352Z,99189.47
2019-02-07T00:46:12.542Z,99203.75
2019-02-07T00:48:44.668Z,99204.89
2019-02-07T00:51:16.683Z,99211.34
2019-02-07T00:53:48.813Z,99214.05
2019-02-07T00:56:21.089Z,99224.89
2019-02-07T00:58:53.792Z,99223.20
2019-02-07T01:01:26.050Z,99218.97
2019-02-07T01:03:58.197Z,99223.20
2019-02-07T01:06:30.453Z,99236.58
2019-02-07T01:09:02.542Z,99241.67
2019-02-07T01:11:36.114Z,99242.38
2019-02-07T01:14:08.296Z,99247.30
2019-02-07T01:16:40.791Z,99256.24
2019-02-07T01:19:12.982Z,99251.56
2019-02-07T01:21:45.458Z,99242.08
2019-02-07T01:24:17.670Z,99232.27
2019-02-07T01:26:49.840Z,99233.30
2019-02-07T01:29:22.019Z,99234.66
2019-02-07T01:31:54.265Z,99233.30
2019-02-07T01:34:26.525Z,99237.36
2019-02-07T01:36:59.641Z,99250.58
2019-02-07T01:39:31.916Z,99264.45
2019-02-07T01:42:04.360Z,99267.69
2019-02-07T01:44:36.640Z,99267.16
2019-02-07T01:47:08.967Z,99257.18
2019-02-07T01:49:41.193Z,99266.95
2019-02-07T01:52:13.419Z,99270.89
2019-02-07T01:54:45.715Z,99277.80
2019-02-07T01:57:17.832Z,99281.56
2019-02-07T01:59:50.639Z,99288.62
2019-02-07T02:02:22.852Z,99289.16
2019-02-07T02:04:55.294Z,99293.92
2019-02-07T02:07:27.492Z,99285.80
2019-02-07T02:09:59.791Z,99295.48
2019-02-07T02:12:32.031Z,99316.32
2019-02-07T02:15:04.259Z,99331.02
2019-02-07T02:17:36.349Z,99319.03
2019-02-07T02:20:08.433Z,99319.03
2019-02-07T02:22:40.480Z,99323.42
2019-02-07T02:25:12.660Z,99342.05
2019-02-07T02:27:44.819Z,99347.47
2019-02-07T02:30:27.009Z,99348.00
2019-02-07T02:33:01.627Z,99356.42
2019-02-07T02:35:34.112Z,99365.90
2019-02-07T02:38:06.233Z,99362.37
2019-02-07T02:40:38.434Z,99369.66
2019-02-07T02:43:10.913Z,99375.45
2019-02-07T02:45:43.404Z,99387.64
2019-02-07T02:48:16.107Z,99385.27
2019-02-07T02:50:48.330Z,99384.11
2019-02-07T02:53:20.602Z,99382.55
2019-02-07T02:55:54.031Z,99382.55
2019-02-07T02:58:27.661Z,99379.34
2019-02-07T03:01:24.414Z,99374.95
2019-02-07T03:04:30.831Z,99379.02
2019-02-07T03:07:36.782Z,99379.52
2019-02-07T03:10:26.199Z,99396.63
2019-02-07T03:13:15.710Z,99394.94
2019-02-07T03:16:04.102Z,99403.06
2019-02-07T03:18:53.655Z,99406.60
2019-02-07T03:21:43.524Z,99423.05
2019-02-07T03:24:46.527Z,99429.63
2019-02-07T03:27:37.476Z,99428.47
2019-02-07T03:30:28.613Z,99439.30
2019-02-07T03:33:19.161Z,99428.17
2019-02-07T03:36:19.356Z,99434.02
2019-02-07T03:39:19.517Z,99423.91
2019-02-07T03:42:11.516Z,99434.94
2019-02-07T03:45:02.418Z,99431.91
2019-02-07T03:47:42.303Z,99440.72
2019-02-07T03:50:34.405Z,99447.49
2019-02-07T03:53:21.827Z,99441.91
2019-02-07T03:56:12.804Z,99453.77
2019-02-07T03:59:09.672Z,99446.34
2019-02-07T04:01:52.594Z,99450.40
2019-02-07T04:04:42.589Z,99447.20
2019-02-07T04:07:46.062Z,99453.63
2019-02-07T04:10:35.702Z,99450.59
2019-02-07T04:13:27.886Z,99449.58
2019-02-07T04:16:27.103Z,99455.72
2019-02-07T04:19:17.671Z,99460.27
2019-02-07T04:22:08.093Z,99451.84
2019-02-07T04:24:58.625Z,99450.99
2019-02-07T04:27:45.334Z,99457.77
2019-02-07T04:30:41.530Z,99454.03
2019-02-07T04:33:32.439Z,99457.27
2019-02-07T04:36:15.372Z,99460.80
2019-02-07T04:39:04.724Z,99454.66
2019-02-07T04:41:54.954Z,99472.59
2019-02-07T04:44:44.482Z,99481.73
2019-02-07T04:47:34.208Z,99464.33
2019-02-07T04:50:23.489Z,99465.39
2019-02-07T04:53:14.167Z,99469.75
2019-02-07T04:56:02.038Z,99468.59
2019-02-07T04:58:52.872Z,99467.57
2019-02-07T05:01:52.129Z,99463.17
2019-02-07T05:04:40.826Z,99458.98
2019-02-07T05:07:38.186Z,99464.86
2019-02-07T05:10:35.845Z,99455.32
2019-02-07T05:13:36.107Z,99449.84
2019-02-07T05:16:25.947Z,99451.88
2019-02-07T05:19:15.116Z,99446.47
2019-02-07T05:22:04.696Z,99453.23
2019-02-07T05:24:50.883Z,99442.41
2019-02-07T05:27:44.659Z,99442.80
2019-02-07T05:30:33.831Z,99440.72
2019-02-07T05:33:26.246Z,99431.97
2019-02-07T05:36:18.304Z,99420.80
2019-02-07T05:39:15.351Z,99419.84
2019-02-07T05:42:15.099Z,99408.39
2019-02-07T05:45:17.682Z,99402.31
2019-02-07T05:48:24.523Z,99403.38
2019-02-07T05:51:05.537Z,99401.63
2019-02-07T05:53:55.257Z,99408.45
2019-02-07T05:56:48.639Z,99400.33
2019-02-07T05:59:37.993Z,99395.41
2019-02-07T06:02:23.393Z,99395.94
2019-02-07T06:05:13.939Z,99384.59
2019-02-07T06:08:16.864Z,99387.82
2019-02-07T06:11:19.755Z,99398.25
2019-02-07T06:14:03.145Z,99402.45
2019-02-07T06:17:02.784Z,99399.94
2019-02-07T06:19:42.414Z,99380.66
2019-02-07T06:22:33.189Z,99388.28
2019-02-07T06:25:24.330Z,99379.95
2019-02-07T06:28:09.623Z,99372.13
2019-02-07T06:30:59.073Z,99366.09
2019-02-07T06:33:48.576Z,99373.88
2019-02-07T06:36:37.766Z,99360.05
2019-02-07T06:39:39.594Z,99373.26
2019-02-07T06:42:40.416Z,99363.25
2019-02-07T06:45:49.939Z,99360.34
2019-02-07T06:48:43.799Z,99342.88
2019-02-07T06:51:37.673Z,99347.46
2019-02-07T06:54:26.531Z,99342.34
2019-02-07T06:57:17.055Z,99336.63
2019-02-07T06:59:59.355Z,99334.12
2019-02-07T07:02:50.131Z,99319.73
2019-02-07T07:05:43.970Z,99314.64
2019-02-07T07:08:33.539Z,99318.70
2019-02-07T07:11:24.492Z,99296.22
2019-02-07T07:14:20.267Z,99294.20
2019-02-07T07:17:11.015Z,99287.97
2019-02-07T07:20:04.917Z,99287.97
2019-02-07T07:22:58.679Z,99280.99
2019-02-07T07:25:48.492Z,99260.89
2019-02-07T07:28:46.402Z,99273.08
2019-02-07T07:31:35.835Z,99262.24
2019-02-07T07:34:32.647Z,99263.07
2019-02-07T07:37:39.181Z,99256.83
2019-02-07T07:40:42.964Z,99259.86
2019-02-07T07:43:32.619Z,99244.97
2019-02-07T07:46:42.408Z,99244.23
2019-02-07T07:49:33.298Z,99228.52
2019-02-07T07:52:30.858Z,99216.34
2019-02-07T07:55:21.254Z,99198.94
2019-02-07T07:58:18.551Z,99203.42
2019-02-07T08:01:08.285Z,99206.13
2019-02-07T08:03:46.505Z,99205.72
2019-02-07T08:06:24.964Z,99195.09
2019-02-07T08:09:28.047Z,99189.35
2019-02-07T08:12:24.879Z,99180.61
2019-02-07T08:15:22.242Z,99159.48
2019-02-07T08:18:16.174Z,99163.54
2019-02-07T08:21:19.411Z,99155.63
2019-02-07T08:24:10.220Z,99129.37
2019-02-07T08:26:58.378Z,99124.48
2019-02-07T08:29:53.836Z,99132.40
2019-02-07T08:32:55.701Z,99132.90
2019-02-07T08:35:45.059Z,99120.72
2019-02-07T08:38:35.251Z,99126.66
2019-02-07T08:41:26.049Z,99115.00
2019-02-07T08:44:15.735Z,99113.12
2019-02-07T08:47:12.460Z,99120.09
2019-02-07T08:49:56.540Z,99124.98
2019-02-07T08:52:46.405Z,99118.21
2019-02-07T08:55:35.180Z,99096.55
2019-02-07T08:58:26.985Z,99102.50
2019-02-07T09:01:17.187Z,99112.80
2019-02-07T09:03:57.839Z,99101.14
2019-02-07T09:06:55.088Z,99094.37
2019-02-07T09:09:51.987Z,99099.79
2019-02-07T09:12:41.052Z,99091.67
2019-02-07T09:15:31.850Z,99080.84
2019-02-07T09:18:31.360Z,99076.77
2019-02-07T09:21:31.455Z,99099.26
2019-02-07T09:24:13.246Z,99082.52
2019-02-07T09:27:01.312Z,99094.70
2019-02-07T09:29:55.211Z,99087.93
2019-02-07T09:32:52.560Z,99094.70
2019-02-07T09:36:04.606Z,99074.07
2019-02-07T09:39:00.903Z,99068.45
2019-02-07T09:42:05.772Z,99043.55
2019-02-07T09:44:55.754Z,99049.28
2019-02-07T09:47:44.936Z,99064.50
2019-02-07T09:50:54.713Z,99032.63
2019-02-07T09:53:57.866Z,99030.45
2019-02-07T09:56:46.914Z,98999.52
2019-02-07T09:59:37.831Z,99008.79
2019-02-07T10:02:31.678Z,98996.92
2019-02-07T10:05:21.430Z,99005.05
2019-02-07T10:08:24.519Z,99015.67
2019-02-07T10:11:18.447Z,99004.84
2019-02-07T10:14:21.315Z,99000.25
2019-02-07T10:17:12.752Z,98983.17
2019-02-07T10:20:04.333Z,98978.91
2019-02-07T10:22:57.307Z,98983.79
2019-02-07T10:25:51.469Z,98978.38
2019-02-07T10:28:42.417Z,98977.02
2019-02-07T10:31:31.784Z,98981.91
2019-02-07T10:34:21.065Z,98985.76
2019-02-07T10:37:05.855Z,98993.88
2019-02-07T10:40:12.445Z,98995.23
2019-02-07T10:43:06.391Z,98995.56
2019-02-07T10:46:03.544Z,98990.14
2019-02-07T10:49:00.434Z,98996.59
2019-02-07T10:51:54.286Z,98976.10
2019-02-07T10:54:54.164Z,98988.08
2019-02-07T10:57:43.771Z,99005.47
2019-02-07T11:00:36.368Z,99009.53
2019-02-07T11:03:34.856Z,99024.43
2019-02-07T11:06:24.169Z,99000.56
2019-02-07T11:09:14.091Z,98982.66
2019-02-07T11:12:07.105Z,98998.39
2019-02-07T11:14:51.250Z,99007.44
2019-02-07T11:17:40.135Z,98994.64
2019-02-07T11:20:33.481Z,98996.81
2019-02-07T11:23:24.193Z,98995.46
2019-02-07T11:26:17.129Z,99007.65
2019-02-07T11:29:06.217Z,99011.71
2019-02-07T11:32:05.503Z,98998.17
2019-02-07T11:35:11.928Z,98990.05
2019-02-07T11:37:59.960Z,99010.68
2019-02-07T11:40:44.158Z,99001.52
2019-02-07T11:43:44.542Z,99012.36
2019-02-07T11:46:41.996Z,99016.92
2019-02-07T11:49:35.608Z,99005.59
2019-02-07T11:52:38.969Z,99019.42
2019-02-07T11:55:31.195Z,99021.92
2019-02-07T11:58:30.402Z,99032.25
2019-02-07T12:01:12.526Z,99008.58
2019-02-07T12:03:56.951Z,99003.49
2019-02-07T12:06:53.393Z,99039.84
2019-02-07T12:09:37.873Z,99024.41
2019-02-07T12:12:35.522Z,99033.08
2019-02-07T12:15:26.356Z,99020.89
2019-02-07T12:18:23.471Z,99028.48
2019-02-07T12:21:20.431Z,99023.06
2019-02-07T12:24:14.498Z,99028.48
2019-02-07T12:27:19.532Z,99026.73
2019-02-07T12:30:15.640Z,99044.02
2019-02-07T12:32:56.565Z,99038.61
2019-02-07T12:35:35.950Z,99040.28
2019-02-07T12:38:28.751Z,99045.70
2019-02-07T12:41:17.618Z,99056.33
2019-02-07T12:44:06.789Z,99061.95
2019-02-07T12:46:55.952Z,99059.53
2019-02-07T12:49:45.011Z,99072.05
2019-02-07T12:52:31.154Z,99081.20
2019-02-07T12:55:26.751Z,99081.85
2019-02-07T12:58:26.744Z,99091.33
2019-02-07T13:01:21.309Z,99089.45
2019-02-07T13:04:09.800Z,99092.69
2019-02-07T13:07:18.596Z,99092.16
2019-02-07T13:10:11.657Z,99091.95
2019-02-07T13:13:02.349Z,99084.34
2019-02-07T13:15:48.105Z,99095.19
2019-02-07T13:18:31.527Z,99092.80
2019-02-07T13:21:21.891Z,99095.13
2019-02-07T13:24:11.126Z,99094.27
2019-02-07T13:27:05.650Z,99114.30
2019-02-07T13:29:54.735Z,99114.09
2019-02-07T13:32:49.806Z,99129.48
2019-02-07T13:35:37.561Z,99129.81
2019-02-07T13:38:35.579Z,99112.20
2019-02-07T13:41:26.102Z,99132.84
2019-02-07T13:44:35.194Z,99123.69
2019-02-07T13:47:34.841Z,99130.95
2019-02-07T13:50:32.418Z,99136.17
2019-02-07T13:53:24.963Z,99162.23
2019-02-07T13:56:15.348Z,99170.03
2019-02-07T13:58:59.282Z,99175.16
2019-02-07T14:01:49.775Z,99177.66
2019-02-07T14:04:49.180Z,99180.38
2019-02-07T14:07:39.928Z,99212.68
2019-02-07T14:10:30.339Z,99220.80
2019-02-07T14:13:41.023Z,99230.29
2019-02-07T14:16:35.689Z,99231.97
2019-02-07T14:19:32.458Z,99228.41
2019-02-07T14:22:26.022Z,99232.80
2019-02-07T14:25:19.627Z,99229.55
2019-02-07T14:28:16.932Z,99244.58
2019-02-07T14:31:06.342Z,99252.58
2019-02-07T14:33:56.040Z,99261.66
2019-02-07T14:36:56.316Z,99269.37
2019-02-07T14:39:51.577Z,99272.91
2019-02-07T14:42:41.408Z,99278.33
2019-02-07T14:45:31.463Z,99284.07
2019-02-07T14:48:04.071Z,99292.82
2019-02-07T14:50:37.235Z,99305.66
2019-02-07T14:53:09.630Z,99310.23
2019-02-07T14:55:42.789Z,99323.60
2019-02-07T14:58:15.131Z,99329.84
2019-02-07T15:00:47.616Z,99325.98
2019-02-07T15:03:19.754Z,99332.44
2019-02-07T15:05:52.062Z,99329.72
2019-02-07T15:08:24.403Z,99337.86
2019-02-07T15:10:57.077Z,99345.98
2019-02-07T15:13:29.332Z,99353.58
2019-02-07T15:16:01.845Z,99354.11
2019-02-07T15:18:33.934Z,99363.59
2019-02-07T15:21:06.625Z,99369.02
2019-02-07T15:23:39.878Z,99378.83
2019-02-07T15:26:12.109Z,99385.60
2019-02-07T15:28:45.514Z,99392.38
2019-02-07T15:31:17.822Z,99394.76
2019-02-07T15:33:50.002Z,99401.53
2019-02-07T15:36:22.514Z,99409.98
2019-02-07T15:38:54.594Z,99416.44
2019-02-07T15:41:27.495Z,99417.79
2019-02-07T15:43:59.588Z,99422.19
2019-02-07T15:46:31.890Z,99421.86
2019-02-07T15:49:03.921Z,99421.86
2019-02-07T15:51:36.152Z,99424.56
2019-02-07T15:54:08.660Z,99424.56
2019-02-07T15:56:40.919Z,99426.45
2019-02-07T15:59:39.784Z,99432.70
2019-02-07T16:02:23.247Z,99439.80
2019-02-07T16:04:56.134Z,99446.57
2019-02-07T16:07:28.321Z,99447.59
2019-02-07T16:10:01.562Z,99446.57
2019-02-07T16:12:34.720Z,99453.34
2019-02-07T16:15:07.381Z,99453.34
2019-02-07T16:17:39.572Z,99455.20
2019-02-07T16:20:14.824Z,99458.56
2019-02-07T16:22:47.443Z,99468.25
2019-02-07T16:25:22.864Z,99478.69
2019-02-07T16:27:55.226Z,99471.31
2019-02-07T16:30:27.331Z,99470.81
2019-02-07T16:32:59.981Z,99477.27
2019-02-07T16:35:32.093Z,99485.19
2019-02-07T16:38:04.402Z,99485.72
2019-02-07T16:40:36.610Z,99494.88
2019-02-07T16:43:08.973Z,99492.70
2019-02-07T16:45:42.182Z,99495.41
2019-02-07T16:48:14.548Z,99495.58
2019-02-07T16:50:46.720Z,99498.95
2019-02-07T16:53:19.093Z,99504.16
2019-02-07T16:55:51.271Z,99509.31
2019-02-07T16:58:24.033Z,99517.78
2019-02-07T17:00:56.400Z,99523.70
2019-02-07T17:03:28.682Z,99520.48
2019-02-07T17:06:00.925Z,99526.73
2019-02-07T17:08:33.301Z,99520.29
2019-02-07T17:11:05.972Z,99528.22
2019-02-07T17:13:38.695Z,99521.64
2019-02-07T17:16:10.935Z,99523.83
2019-02-07T17:18:43.287Z,99532.16
2019-02-07T17:21:15.418Z,99530.47
2019-02-07T17:23:47.991Z,99535.06
2019-02-07T17:26:20.296Z,99539.46
2019-02-07T17:28:52.588Z,99535.06
2019-02-07T17:31:24.785Z,99535.06
2019-02-07T17:33:56.875Z,99537.97
2019-02-07T17:36:29.070Z,99539.13
2019-02-07T17:39:01.387Z,99532.23
2019-02-07T17:41:34.934Z,99536.82
2019-02-07T17:44:07.229Z,99539.00
2019-02-07T17:46:39.571Z,99546.94
2019-02-07T17:49:11.884Z,99542.57
2019-02-07T17:51:44.337Z,99555.80
2019-02-07T17:54:18.749Z,99554.56
2019-02-07T17:56:50.912Z,99557.15
2019-02-07T17:59:23.517Z,99555.80
2019-02-07T18:01:55.760Z,99566.11
2019-02-07T18:04:28.105Z,99557.77
2019-02-07T18:07:00.373Z,99562.04
2019-02-07T18:09:32.681Z,99569.84
2019-02-07T18:12:04.917Z,99565.91
2019-02-07T18:14:37.267Z,99567.66
2019-02-07T18:17:09.988Z,99568.48
2019-02-07T18:19:42.312Z,99571.33
2019-02-07T18:22:14.559Z,99572.38
2019-02-07T18:24:46.938Z,99574.23
2019-02-07T18:27:19.170Z,99570.70
2019-02-07T18:29:51.169Z,99570.70
2019-02-07T18:32:23.440Z,99575.09
2019-02-07T18:34:55.659Z,99566.11
2019-02-07T18:37:27.833Z,99567.13
2019-02-07T18:40:00.034Z,99562.04
2019-02-07T18:42:32.342Z,99571.33
2019-02-07T18:45:04.609Z,99563.06
2019-02-07T18:47:37.023Z,99565.48
2019-02-07T18:50:10.142Z,99568.19
2019-02-07T18:52:42.386Z,99565.08
2019-02-07T18:55:14.890Z,99557.15
2019-02-07T18:57:46.915Z,99551.73
2019-02-07T19:00:20.811Z,99563.20
2019-02-07T19:02:52.952Z,99569.67
2019-02-07T19:05:25.051Z,99570.30
2019-02-07T19:07:59.793Z,99564.05
2019-02-07T19:10:31.802Z,99569.67
2019-02-07T19:13:04.433Z,99569.34
2019-02-07T19:15:38.304Z,99571.72
2019-02-07T19:18:11.692Z,99570.37
2019-02-07T19:20:44.474Z,99571.39
2019-02-07T19:23:16.671Z,99575.16
2019-02-07T19:25:49.321Z,99577.97
2019-02-07T19:28:21.489Z,99579.86
2019-02-07T19:30:53.685Z,99583.09
2019-02-07T19:33:25.927Z,99587.66
2019-02-07T19:35:58.579Z,99584.65
2019-02-07T19:38:32.874Z,99590.06
2019-02-07T19:41:04.618Z,99594.13
2019-02-07T19:43:36.928Z,99592.25
2019-02-07T19:46:09.041Z,99596.52
2019-02-07T19:48:42.236Z,99595.69
2019-02-07T19:51:14.323Z,99591.92
2019-02-07T19:53:46.796Z,99600.58
2019-02-07T19:56:19.364Z,99602.76
2019-02-07T19:58:51.801Z,99599.55
2019-02-07T20:01:24.287Z,99602.63
2019-02-07T20:03:56.595Z,99608.58
2019-02-07T20:06:28.787Z,99613.17
2019-02-07T20:09:01.102Z,99609.73
2019-02-07T20:11:34.951Z,99605.34
2019-02-07T20:14:08.394Z,99610.76
2019-02-07T20:16:40.545Z,99609.59
2019-02-07T20:19:12.734Z,99612.31
2019-02-07T20:21:44.912Z,99618.59
2019-02-07T20:24:17.172Z,99613.36
2019-02-07T20:26:49.577Z,99615.55
2019-02-07T20:29:21.729Z,99607.41
2019-02-07T20:31:54.837Z,99607.94
2019-02-07T20:34:27.178Z,99604.37
2019-02-07T20:36:59.197Z,99610.84
2019-02-07T20:39:31.193Z,99598.66
2019-02-07T20:42:05.368Z,99602.19
2019-02-07T20:44:37.471Z,99596.77
2019-02-07T20:47:09.535Z,99602.72
2019-02-07T20:49:41.706Z,99599.15
2019-02-07T20:52:13.878Z,99603.22
2019-02-07T20:54:46.140Z,99598.95
2019-02-07T20:57:18.248Z,99598.82
2019-02-07T20:59:50.472Z,99592.91
2019-02-07T21:02:22.657Z,99595.61
2019-02-07T21:04:54.961Z,99590.39
2019-02-07T21:07:27.394Z,99585.47
2019-02-07T21:10:00.609Z,99592.77
2019-02-07T21:12:32.734Z,99582.45
2019-02-07T21:15:04.972Z,99582.45
2019-02-07T21:17:36.961Z,99579.75
2019-02-07T21:20:10.007Z,99580.77
2019-02-07T21:22:42.154Z,99588.91
2019-02-07T21:25:16.189Z,99579.95
2019-02-07T21:27:48.409Z,99580.44
2019-02-07T21:30:21.746Z,99576.38
2019-02-07T21:32:56.129Z,99581.80
2019-02-07T21:35:28.385Z,99569.80
2019-02-07T21:38:01.477Z,99590.13
2019-02-07T21:40:33.991Z,99596.40
2019-02-07T21:43:06.016Z,99605.22
2019-02-07T21:45:38.571Z,99610.64
2019-02-07T21:48:11.874Z,99608.76
2019-02-07T21:50:44.102Z,99608.95
2019-02-07T21:53:16.221Z,99604.59
2019-02-07T21:55:48.558Z,99605.42
2019-02-07T21:58:20.851Z,99608.45
2019-02-07T22:00:53.247Z,99605.95
2019-02-07T22:03:26.414Z,99612.72
2019-02-07T22:05:58.712Z,99617.80
2019-02-07T22:08:30.764Z,99615.09
2019-02-07T22:11:03.170Z,99618.33
2019-02-07T22:13:35.299Z,99613.41
2019-02-07T22:16:07.716Z,99614.44
2019-02-07T22:18:39.933Z,99610.37
2019-02-07T22:21:12.230Z,99615.48
2019-02-07T22:23:44.477Z,99614.13
2019-02-07T22:26:16.618Z,99618.86
2019-02-07T22:28:48.844Z,99621.92
2019-02-07T22:31:21.173Z,99619.72
2019-02-07T22:33:53.338Z,99625.13
2019-02-07T22:36:25.346Z,99620.58
2019-02-07T22:38:57.552Z,99623.28
2019-02-07T22:41:29.851Z,99618.69
2019-02-07T22:44:01.963Z,99623.45
2019-02-07T22:46:34.175Z,99635.83
2019-02-07T22:49:07.376Z,99629.75
2019-02-07T22:51:39.538Z,99633.31
2019-02-07T22:54:11.804Z,99632.16
2019-02-07T22:56:45.548Z,99636.22
2019-02-07T22:59:22.179Z,99644.34
2019-02-07T23:01:55.331Z,99634.20
2019-02-07T23:04:27.734Z,99646.39
2019-02-07T23:06:59.942Z,99643.35
2019-02-07T23:09:32.157Z,99644.41
2019-02-07T23:12:04.343Z,99646.25
2019-02-07T23:14:36.594Z,99638.66
2019-02-07T23:17:08.754Z,99632.91
2019-02-07T23:19:40.973Z,99637.16
2019-02-07T23:22:12.875Z,99642.08
2019-02-07T23:24:44.935Z,99637.16
2019-02-07T23:27:17.240Z,99633.09
2019-02-07T23:29:49.368Z,99637.35
2019-02-07T23:32:21.557Z,99644.13
2019-02-07T23:34:54.211Z,99647.36
2019-02-07T23:37:27.983Z,99649.55
2019-02-07T23:40:00.435Z,99646.50
2019-02-07T23:42:32.547Z,99650.76
2019-02-07T23:45:04.629Z,99650.27
2019-02-07T23:47:36.846Z,99653.66
2019-02-07T23:50:09.118Z,99656.37
2019-02-07T23:52:41.436Z,99654.19
2019-02-07T23:55:13.720Z,99653.02
2019-02-07T23:57:46.002Z,99653.02
